This is the latest recevied weather packets stored in our database for station/object W5CRT. If no packets are shown the sender has not sent any weather packets the latest 1 day(s).
| Time | Temp. | Humidity | Pressure | Rain* | Wind** | Luminosity | Snow |
|---|---|---|---|---|---|---|---|
| 1778004696 | 28.33° C | 65% | 1003.4 hPa | 0 mm | 3.13 m/s, 220° | 848 W/m² | - |
| 1778004392 | 28.89° C | 64% | 1003.5 hPa | 0 mm | 1.34 m/s, 255° | 632 W/m² | - |
| 1778004089 | 28.33° C | 66% | 1003.3 hPa | 0 mm | 2.24 m/s, 168° | 842 W/m² | - |
| 1778003785 | 28.33° C | 66% | 1003.4 hPa | 0 mm | 2.68 m/s, 196° | 705 W/m² | - |
| 1778003482 | 27.78° C | 67% | 1003.5 hPa | 0 mm | 2.68 m/s, 217° | 594 W/m² | - |
| 1778003178 | 27.78° C | 68% | 1003.6 hPa | 0 mm | 2.24 m/s, 167° | 563 W/m² | - |
| 1778002874 | 27.78° C | 67% | 1003.4 hPa | 0 mm | 1.79 m/s, 180° | 622 W/m² | - |
| 1778002571 | 27.78° C | 66% | 1003.6 hPa | 0 mm | 2.24 m/s, 173° | 681 W/m² | - |
| 1778002268 | 27.78° C | 68% | 1003.3 hPa | 0 mm | 0.89 m/s, 174° | 783 W/m² | - |
| 1778001966 | 27.22° C | 68% | 1003.5 hPa | 0 mm | 0.45 m/s, 56° | 737 W/m² | - |
| 1778001663 | 26.67° C | 70% | 1003.6 hPa | 0 mm | 1.34 m/s, 174° | 1218 W/m² | - |
| 1778001363 | 26.67° C | 69% | 1004 hPa | 0 mm | 3.13 m/s, 154° | 415 W/m² | - |
| 1778001060 | 27.22° C | 68% | 1003.8 hPa | 0 mm | 2.24 m/s, 173° | 620 W/m² | - |
| 1778000757 | 27.22° C | 68% | 1003.8 hPa | 0 mm | 2.68 m/s, 189° | 725 W/m² | - |
| 1778000453 | 27.22° C | 68% | 1003.4 hPa | 0 mm | 2.68 m/s, 177° | 793 W/m² | - |
| 1778000148 | 27.22° C | 70% | 1003.6 hPa | 0 mm | 1.79 m/s, 248° | 1080 W/m² | - |
| 1777999845 | 26.67° C | 69% | 1003.5 hPa | 0 mm | 1.79 m/s, 186° | 645 W/m² | - |
| 1777999540 | 26.67° C | 71% | 1003.6 hPa | 0 mm | 1.34 m/s, 178° | 594 W/m² | - |
| 1777999238 | 26.67° C | 70% | 1003.8 hPa | 0 mm | 0.89 m/s, 195° | 770 W/m² | - |
| 1777998937 | 26.11° C | 71% | 1003.6 hPa | 0 mm | 3.58 m/s, 182° | 615 W/m² | - |
| 1777998634 | 26.11° C | 72% | 1003.6 hPa | 0 mm | 2.68 m/s, 168° | 597 W/m² | - |
| 1777998332 | 25.56° C | 72% | 1003.2 hPa | 0 mm | 2.24 m/s, 178° | 610 W/m² | - |
| 1777998029 | 25.56° C | 72% | 1003.4 hPa | 0 mm | 1.79 m/s, 211° | 643 W/m² | - |
| 1777997725 | 25.56° C | 72% | 1003.3 hPa | 0 mm | 1.79 m/s, 187° | 553 W/m² | - |
| 1777997423 | 26.11° C | 71% | 1003.2 hPa | 0 mm | 0.89 m/s, 237° | 511 W/m² | - |
* Rain latest hour (hover to see other rain measurements)
** Current wind speed in m/s (hover to see current wind gust speed)